sensor_id;sensor_type;location;lat;lon;timestamp;P1;durP1;ratioP1;P2;durP2;ratioP2
44169;SDS011;29836;52.286;9.576;2022-10-16T00:00:43;1.00;;;0.80;;
44169;SDS011;29836;52.286;9.576;2022-10-16T00:03:09;1.65;;;0.70;;
44169;SDS011;29836;52.286;9.576;2022-10-16T00:05:42;1.50;;;0.82;;
44169;SDS011;29836;52.286;9.576;2022-10-16T00:08:09;1.77;;;0.68;;
44169;SDS011;29836;52.286;9.576;2022-10-16T00:10:35;0.70;;;0.70;;
44169;SDS011;29836;52.286;9.576;2022-10-16T00:13:01;0.52;;;0.52;;
44169;SDS011;29836;52.286;9.576;2022-10-16T00:15:27;2.85;;;1.10;;
44169;SDS011;29836;52.286;9.576;2022-10-16T00:17:52;8.90;;;1.10;;
44169;SDS011;29836;52.286;9.576;2022-10-16T00:20:18;0.70;;;0.50;;
44169;SDS011;29836;52.286;9.576;2022-10-16T00:22:43;1.75;;;0.68;;
44169;SDS011;29836;52.286;9.576;2022-10-16T00:25:09;3.13;;;0.85;;
44169;SDS011;29836;52.286;9.576;2022-10-16T00:27:35;0.85;;;0.63;;
44169;SDS011;29836;52.286;9.576;2022-10-16T00:30:00;3.17;;;0.93;;
44169;SDS011;29836;52.286;9.576;2022-10-16T00:32:26;0.98;;;0.50;;
44169;SDS011;29836;52.286;9.576;2022-10-16T00:34:52;1.40;;;0.88;;
44169;SDS011;29836;52.286;9.576;2022-10-16T00:37:19;1.13;;;0.73;;
44169;SDS011;29836;52.286;9.576;2022-10-16T00:39:45;1.50;;;0.65;;
44169;SDS011;29836;52.286;9.576;2022-10-16T00:42:17;0.65;;;0.50;;
44169;SDS011;29836;52.286;9.576;2022-10-16T00:44:57;2.45;;;0.98;;
44169;SDS011;29836;52.286;9.576;2022-10-16T00:47:26;2.90;;;0.85;;
44169;SDS011;29836;52.286;9.576;2022-10-16T00:50:00;2.53;;;1.00;;
44169;SDS011;29836;52.286;9.576;2022-10-16T00:52:27;0.75;;;0.70;;
44169;SDS011;29836;52.286;9.576;2022-10-16T00:54:53;0.88;;;0.60;;
44169;SDS011;29836;52.286;9.576;2022-10-16T00:57:20;2.35;;;0.85;;
44169;SDS011;29836;52.286;9.576;2022-10-16T00:59:46;1.98;;;0.80;;
44169;SDS011;29836;52.286;9.576;2022-10-16T01:02:12;2.88;;;1.10;;
44169;SDS011;29836;52.286;9.576;2022-10-16T01:04:41;1.58;;;1.00;;
44169;SDS011;29836;52.286;9.576;2022-10-16T01:07:36;2.67;;;1.38;;
44169;SDS011;29836;52.286;9.576;2022-10-16T01:10:21;1.05;;;0.70;;
44169;SDS011;29836;52.286;9.576;2022-10-16T01:15:25;1.98;;;0.98;;
44169;SDS011;29836;52.286;9.576;2022-10-16T01:18:00;1.10;;;0.88;;
44169;SDS011;29836;52.286;9.576;2022-10-16T01:20:33;2.65;;;0.95;;
44169;SDS011;29836;52.286;9.576;2022-10-16T01:28:41;5.18;;;1.08;;
44169;SDS011;29836;52.286;9.576;2022-10-16T01:31:29;2.85;;;1.17;;
44169;SDS011;29836;52.286;9.576;2022-10-16T01:34:07;6.00;;;1.15;;
44169;SDS011;29836;52.286;9.576;2022-10-16T01:36:45;1.15;;;0.80;;
44169;SDS011;29836;52.286;9.576;2022-10-16T01:39:15;1.15;;;1.00;;
44169;SDS011;29836;52.286;9.576;2022-10-16T01:41:48;5.25;;;1.10;;
44169;SDS011;29836;52.286;9.576;2022-10-16T01:44:21;1.67;;;1.00;;
44169;SDS011;29836;52.286;9.576;2022-10-16T01:46:50;5.38;;;1.45;;
44169;SDS011;29836;52.286;9.576;2022-10-16T01:49:18;2.70;;;1.13;;
44169;SDS011;29836;52.286;9.576;2022-10-16T01:51:47;1.40;;;1.10;;
44169;SDS011;29836;52.286;9.576;2022-10-16T01:54:16;2.40;;;1.30;;
44169;SDS011;29836;52.286;9.576;2022-10-16T01:56:43;1.75;;;1.20;;
44169;SDS011;29836;52.286;9.576;2022-10-16T01:59:11;1.80;;;1.20;;
44169;SDS011;29836;52.286;9.576;2022-10-16T02:01:40;1.90;;;1.40;;
44169;SDS011;29836;52.286;9.576;2022-10-16T02:04:11;6.43;;;1.50;;
44169;SDS011;29836;52.286;9.576;2022-10-16T02:06:58;3.60;;;1.20;;
44169;SDS011;29836;52.286;9.576;2022-10-16T02:09:24;5.97;;;1.80;;
44169;SDS011;29836;52.286;9.576;2022-10-16T02:11:50;2.13;;;0.98;;
44169;SDS011;29836;52.286;9.576;2022-10-16T02:14:19;1.98;;;1.25;;
44169;SDS011;29836;52.286;9.576;2022-10-16T02:16:47;5.72;;;1.33;;
44169;SDS011;29836;52.286;9.576;2022-10-16T02:19:13;4.15;;;1.38;;
44169;SDS011;29836;52.286;9.576;2022-10-16T02:21:42;5.28;;;1.10;;
44169;SDS011;29836;52.286;9.576;2022-10-16T02:26:52;2.85;;;1.40;;
44169;SDS011;29836;52.286;9.576;2022-10-16T02:29:27;3.88;;;1.30;;
44169;SDS011;29836;52.286;9.576;2022-10-16T02:31:58;5.22;;;1.55;;
44169;SDS011;29836;52.286;9.576;2022-10-16T02:34:26;2.47;;;1.33;;
44169;SDS011;29836;52.286;9.576;2022-10-16T02:36:55;3.70;;;1.40;;
44169;SDS011;29836;52.286;9.576;2022-10-16T02:39:22;2.22;;;1.10;;
44169;SDS011;29836;52.286;9.576;2022-10-16T02:41:48;3.35;;;1.30;;
44169;SDS011;29836;52.286;9.576;2022-10-16T02:44:14;2.65;;;1.42;;
44169;SDS011;29836;52.286;9.576;2022-10-16T02:46:39;3.35;;;1.27;;
44169;SDS011;29836;52.286;9.576;2022-10-16T02:49:05;3.65;;;1.52;;
44169;SDS011;29836;52.286;9.576;2022-10-16T02:51:30;4.00;;;1.20;;
44169;SDS011;29836;52.286;9.576;2022-10-16T02:53:56;1.98;;;1.13;;
44169;SDS011;29836;52.286;9.576;2022-10-16T02:56:21;2.60;;;1.60;;
44169;SDS011;29836;52.286;9.576;2022-10-16T02:58:47;5.32;;;1.55;;
44169;SDS011;29836;52.286;9.576;2022-10-16T03:01:13;2.67;;;1.20;;
44169;SDS011;29836;52.286;9.576;2022-10-16T03:03:39;3.35;;;1.38;;
44169;SDS011;29836;52.286;9.576;2022-10-16T03:06:04;4.22;;;1.77;;
44169;SDS011;29836;52.286;9.576;2022-10-16T03:08:31;3.90;;;1.42;;
44169;SDS011;29836;52.286;9.576;2022-10-16T03:10:56;7.55;;;1.50;;
44169;SDS011;29836;52.286;9.576;2022-10-16T03:13:22;2.25;;;1.67;;
44169;SDS011;29836;52.286;9.576;2022-10-16T03:15:47;1.60;;;1.20;;
44169;SDS011;29836;52.286;9.576;2022-10-16T03:18:13;10.80;;;1.90;;
44169;SDS011;29836;52.286;9.576;2022-10-16T03:20:39;5.18;;;1.65;;
44169;SDS011;29836;52.286;9.576;2022-10-16T03:23:04;2.50;;;1.20;;
44169;SDS011;29836;52.286;9.576;2022-10-16T03:25:31;2.25;;;1.27;;
44169;SDS011;29836;52.286;9.576;2022-10-16T03:27:57;3.92;;;1.35;;
44169;SDS011;29836;52.286;9.576;2022-10-16T03:30:22;1.48;;;1.10;;
44169;SDS011;29836;52.286;9.576;2022-10-16T03:32:48;2.70;;;1.20;;
44169;SDS011;29836;52.286;9.576;2022-10-16T03:35:18;2.40;;;1.33;;
44169;SDS011;29836;52.286;9.576;2022-10-16T03:37:47;3.40;;;1.13;;
44169;SDS011;29836;52.286;9.576;2022-10-16T03:40:13;8.10;;;1.38;;
44169;SDS011;29836;52.286;9.576;2022-10-16T03:42:40;4.38;;;1.27;;
44169;SDS011;29836;52.286;9.576;2022-10-16T03:45:06;2.60;;;1.20;;
44169;SDS011;29836;52.286;9.576;2022-10-16T03:47:32;6.93;;;1.10;;
44169;SDS011;29836;52.286;9.576;2022-10-16T03:49:58;5.00;;;1.30;;
44169;SDS011;29836;52.286;9.576;2022-10-16T03:52:24;1.67;;;0.90;;
44169;SDS011;29836;52.286;9.576;2022-10-16T03:54:50;3.08;;;1.25;;
44169;SDS011;29836;52.286;9.576;2022-10-16T03:57:16;5.10;;;1.23;;
44169;SDS011;29836;52.286;9.576;2022-10-16T03:59:42;3.13;;;1.48;;
44169;SDS011;29836;52.286;9.576;2022-10-16T04:02:08;3.08;;;1.30;;
44169;SDS011;29836;52.286;9.576;2022-10-16T04:04:33;3.05;;;1.33;;
44169;SDS011;29836;52.286;9.576;2022-10-16T04:06:59;2.15;;;1.23;;
44169;SDS011;29836;52.286;9.576;2022-10-16T04:09:25;5.75;;;1.17;;
44169;SDS011;29836;52.286;9.576;2022-10-16T04:11:50;3.58;;;1.25;;
44169;SDS011;29836;52.286;9.576;2022-10-16T04:14:16;3.65;;;1.27;;
44169;SDS011;29836;52.286;9.576;2022-10-16T04:16:41;3.67;;;1.20;;
44169;SDS011;29836;52.286;9.576;2022-10-16T04:19:07;3.10;;;1.35;;
44169;SDS011;29836;52.286;9.576;2022-10-16T04:21:33;4.60;;;1.58;;
44169;SDS011;29836;52.286;9.576;2022-10-16T04:23:59;2.63;;;1.55;;
44169;SDS011;29836;52.286;9.576;2022-10-16T04:26:25;2.33;;;1.40;;
44169;SDS011;29836;52.286;9.576;2022-10-16T04:28:50;3.72;;;1.50;;
44169;SDS011;29836;52.286;9.576;2022-10-16T04:31:16;4.03;;;1.90;;
44169;SDS011;29836;52.286;9.576;2022-10-16T04:33:42;4.65;;;1.50;;
44169;SDS011;29836;52.286;9.576;2022-10-16T04:36:08;2.40;;;1.42;;
44169;SDS011;29836;52.286;9.576;2022-10-16T04:38:34;4.65;;;1.63;;
44169;SDS011;29836;52.286;9.576;2022-10-16T04:40:59;3.53;;;1.67;;
44169;SDS011;29836;52.286;9.576;2022-10-16T04:43:25;6.93;;;1.60;;
44169;SDS011;29836;52.286;9.576;2022-10-16T04:45:51;2.92;;;1.48;;
44169;SDS011;29836;52.286;9.576;2022-10-16T04:48:17;4.70;;;1.95;;
44169;SDS011;29836;52.286;9.576;2022-10-16T04:50:43;3.92;;;1.70;;
44169;SDS011;29836;52.286;9.576;2022-10-16T04:53:08;2.20;;;1.08;;
44169;SDS011;29836;52.286;9.576;2022-10-16T04:55:34;2.90;;;1.70;;
44169;SDS011;29836;52.286;9.576;2022-10-16T04:58:00;3.50;;;1.50;;
44169;SDS011;29836;52.286;9.576;2022-10-16T05:00:25;3.45;;;1.73;;
44169;SDS011;29836;52.286;9.576;2022-10-16T05:02:51;3.45;;;1.52;;
44169;SDS011;29836;52.286;9.576;2022-10-16T05:05:17;5.30;;;1.90;;
44169;SDS011;29836;52.286;9.576;2022-10-16T05:07:44;4.55;;;1.65;;
44169;SDS011;29836;52.286;9.576;2022-10-16T05:10:14;6.88;;;1.92;;
44169;SDS011;29836;52.286;9.576;2022-10-16T05:12:40;4.28;;;1.63;;
44169;SDS011;29836;52.286;9.576;2022-10-16T05:15:06;3.30;;;1.70;;
44169;SDS011;29836;52.286;9.576;2022-10-16T05:17:32;4.13;;;1.67;;
44169;SDS011;29836;52.286;9.576;2022-10-16T05:19:58;5.47;;;1.45;;
44169;SDS011;29836;52.286;9.576;2022-10-16T05:22:23;4.70;;;1.70;;
44169;SDS011;29836;52.286;9.576;2022-10-16T05:24:49;2.75;;;1.50;;
44169;SDS011;29836;52.286;9.576;2022-10-16T05:27:14;2.55;;;1.52;;
44169;SDS011;29836;52.286;9.576;2022-10-16T05:29:46;2.90;;;1.52;;
44169;SDS011;29836;52.286;9.576;2022-10-16T05:32:13;2.42;;;1.55;;
44169;SDS011;29836;52.286;9.576;2022-10-16T05:34:40;5.93;;;1.80;;
44169;SDS011;29836;52.286;9.576;2022-10-16T05:37:05;1.92;;;1.23;;
44169;SDS011;29836;52.286;9.576;2022-10-16T05:39:31;5.80;;;1.75;;
44169;SDS011;29836;52.286;9.576;2022-10-16T05:41:57;3.78;;;1.83;;
44169;SDS011;29836;52.286;9.576;2022-10-16T05:44:22;3.15;;;1.67;;
44169;SDS011;29836;52.286;9.576;2022-10-16T05:46:48;4.75;;;1.60;;
44169;SDS011;29836;52.286;9.576;2022-10-16T05:49:13;3.42;;;1.73;;
44169;SDS011;29836;52.286;9.576;2022-10-16T05:51:39;6.20;;;2.00;;
44169;SDS011;29836;52.286;9.576;2022-10-16T05:54:06;4.93;;;1.60;;
44169;SDS011;29836;52.286;9.576;2022-10-16T05:56:31;5.63;;;1.67;;
44169;SDS011;29836;52.286;9.576;2022-10-16T05:58:57;4.55;;;1.60;;
44169;SDS011;29836;52.286;9.576;2022-10-16T06:01:22;3.80;;;1.67;;
44169;SDS011;29836;52.286;9.576;2022-10-16T06:03:49;6.57;;;1.75;;
44169;SDS011;29836;52.286;9.576;2022-10-16T06:06:17;2.05;;;1.33;;
44169;SDS011;29836;52.286;9.576;2022-10-16T06:08:45;4.38;;;1.55;;
44169;SDS011;29836;52.286;9.576;2022-10-16T06:11:13;3.15;;;1.50;;
44169;SDS011;29836;52.286;9.576;2022-10-16T06:13:43;3.22;;;1.35;;
44169;SDS011;29836;52.286;9.576;2022-10-16T06:16:11;2.75;;;1.45;;
44169;SDS011;29836;52.286;9.576;2022-10-16T06:18:37;4.25;;;1.80;;
44169;SDS011;29836;52.286;9.576;2022-10-16T06:21:10;3.72;;;1.67;;
44169;SDS011;29836;52.286;9.576;2022-10-16T06:23:41;5.95;;;2.13;;
44169;SDS011;29836;52.286;9.576;2022-10-16T06:26:08;5.45;;;1.70;;
44169;SDS011;29836;52.286;9.576;2022-10-16T06:28:35;4.75;;;2.13;;
44169;SDS011;29836;52.286;9.576;2022-10-16T06:31:01;4.10;;;1.33;;
44169;SDS011;29836;52.286;9.576;2022-10-16T06:33:27;3.28;;;1.73;;
44169;SDS011;29836;52.286;9.576;2022-10-16T06:35:53;5.07;;;1.33;;
44169;SDS011;29836;52.286;9.576;2022-10-16T06:38:19;2.40;;;1.42;;
44169;SDS011;29836;52.286;9.576;2022-10-16T06:40:44;2.88;;;1.63;;
44169;SDS011;29836;52.286;9.576;2022-10-16T06:43:10;6.07;;;1.80;;
44169;SDS011;29836;52.286;9.576;2022-10-16T06:45:35;5.05;;;2.08;;
44169;SDS011;29836;52.286;9.576;2022-10-16T06:48:01;1.80;;;1.40;;
44169;SDS011;29836;52.286;9.576;2022-10-16T06:50:27;4.13;;;1.60;;
44169;SDS011;29836;52.286;9.576;2022-10-16T06:52:53;2.08;;;1.25;;
44169;SDS011;29836;52.286;9.576;2022-10-16T06:55:18;1.55;;;1.08;;
44169;SDS011;29836;52.286;9.576;2022-10-16T06:57:46;2.25;;;1.33;;
44169;SDS011;29836;52.286;9.576;2022-10-16T07:00:12;3.83;;;1.13;;
44169;SDS011;29836;52.286;9.576;2022-10-16T07:02:37;4.75;;;1.63;;
44169;SDS011;29836;52.286;9.576;2022-10-16T07:05:03;2.30;;;1.15;;
44169;SDS011;29836;52.286;9.576;2022-10-16T07:07:29;1.13;;;0.90;;
44169;SDS011;29836;52.286;9.576;2022-10-16T07:09:54;2.30;;;0.73;;
44169;SDS011;29836;52.286;9.576;2022-10-16T07:12:20;1.17;;;0.82;;
44169;SDS011;29836;52.286;9.576;2022-10-16T07:14:46;1.58;;;1.10;;
44169;SDS011;29836;52.286;9.576;2022-10-16T07:17:11;3.83;;;0.80;;
44169;SDS011;29836;52.286;9.576;2022-10-16T07:19:37;1.95;;;1.20;;
44169;SDS011;29836;52.286;9.576;2022-10-16T07:22:03;1.35;;;0.90;;
44169;SDS011;29836;52.286;9.576;2022-10-16T07:24:29;1.98;;;1.00;;
44169;SDS011;29836;52.286;9.576;2022-10-16T07:26:55;7.15;;;1.08;;
44169;SDS011;29836;52.286;9.576;2022-10-16T07:29:21;1.20;;;0.70;;
44169;SDS011;29836;52.286;9.576;2022-10-16T07:31:47;1.48;;;0.95;;
44169;SDS011;29836;52.286;9.576;2022-10-16T07:34:14;3.08;;;0.88;;
44169;SDS011;29836;52.286;9.576;2022-10-16T07:36:41;1.40;;;1.00;;
44169;SDS011;29836;52.286;9.576;2022-10-16T07:39:07;2.92;;;1.05;;
44169;SDS011;29836;52.286;9.576;2022-10-16T07:41:33;1.23;;;0.85;;
44169;SDS011;29836;52.286;9.576;2022-10-16T07:44:01;0.80;;;0.80;;
44169;SDS011;29836;52.286;9.576;2022-10-16T07:46:28;2.95;;;0.93;;
44169;SDS011;29836;52.286;9.576;2022-10-16T07:48:54;1.15;;;0.80;;
44169;SDS011;29836;52.286;9.576;2022-10-16T07:51:20;0.63;;;0.60;;
44169;SDS011;29836;52.286;9.576;2022-10-16T07:53:48;0.95;;;0.75;;
44169;SDS011;29836;52.286;9.576;2022-10-16T07:56:14;1.05;;;0.90;;
44169;SDS011;29836;52.286;9.576;2022-10-16T07:58:40;0.95;;;0.70;;
44169;SDS011;29836;52.286;9.576;2022-10-16T08:01:07;1.08;;;0.90;;
44169;SDS011;29836;52.286;9.576;2022-10-16T08:03:34;3.78;;;0.80;;
44169;SDS011;29836;52.286;9.576;2022-10-16T08:06:00;1.83;;;0.68;;
44169;SDS011;29836;52.286;9.576;2022-10-16T08:08:27;1.10;;;0.80;;
44169;SDS011;29836;52.286;9.576;2022-10-16T08:10:53;0.80;;;0.75;;
44169;SDS011;29836;52.286;9.576;2022-10-16T08:13:19;3.17;;;1.00;;
44169;SDS011;29836;52.286;9.576;2022-10-16T08:15:45;0.65;;;0.65;;
44169;SDS011;29836;52.286;9.576;2022-10-16T08:18:12;0.73;;;0.65;;
44169;SDS011;29836;52.286;9.576;2022-10-16T08:20:39;0.70;;;0.70;;
44169;SDS011;29836;52.286;9.576;2022-10-16T08:23:06;1.55;;;0.63;;
44169;SDS011;29836;52.286;9.576;2022-10-16T08:25:35;2.85;;;1.02;;
44169;SDS011;29836;52.286;9.576;2022-10-16T08:28:05;1.77;;;0.90;;
44169;SDS011;29836;52.286;9.576;2022-10-16T08:30:31;0.70;;;0.68;;
44169;SDS011;29836;52.286;9.576;2022-10-16T08:32:57;1.23;;;0.88;;
44169;SDS011;29836;52.286;9.576;2022-10-16T08:35:23;0.68;;;0.68;;
44169;SDS011;29836;52.286;9.576;2022-10-16T08:37:49;1.90;;;0.98;;
44169;SDS011;29836;52.286;9.576;2022-10-16T08:40:18;1.15;;;0.88;;
44169;SDS011;29836;52.286;9.576;2022-10-16T08:51:07;1.33;;;0.90;;
44169;SDS011;29836;52.286;9.576;2022-10-16T08:53:42;0.82;;;0.65;;
44169;SDS011;29836;52.286;9.576;2022-10-16T08:56:14;0.95;;;0.82;;
44169;SDS011;29836;52.286;9.576;2022-10-16T08:58:39;1.52;;;0.90;;
44169;SDS011;29836;52.286;9.576;2022-10-16T09:01:10;1.05;;;0.82;;
44169;SDS011;29836;52.286;9.576;2022-10-16T09:03:42;1.10;;;0.77;;
44169;SDS011;29836;52.286;9.576;2022-10-16T09:09:54;4.00;;;0.90;;
44169;SDS011;29836;52.286;9.576;2022-10-16T09:15:16;1.85;;;0.95;;
44169;SDS011;29836;52.286;9.576;2022-10-16T09:21:16;3.72;;;0.70;;
44169;SDS011;29836;52.286;9.576;2022-10-16T09:23:46;2.30;;;0.80;;
44169;SDS011;29836;52.286;9.576;2022-10-16T09:26:13;4.35;;;0.80;;
44169;SDS011;29836;52.286;9.576;2022-10-16T09:28:40;1.33;;;0.90;;
44169;SDS011;29836;52.286;9.576;2022-10-16T09:31:10;1.10;;;0.80;;
44169;SDS011;29836;52.286;9.576;2022-10-16T09:33:43;2.58;;;0.80;;
44169;SDS011;29836;52.286;9.576;2022-10-16T09:36:10;1.52;;;0.93;;
44169;SDS011;29836;52.286;9.576;2022-10-16T09:38:37;0.90;;;0.80;;
44169;SDS011;29836;52.286;9.576;2022-10-16T09:41:12;1.05;;;0.80;;
44169;SDS011;29836;52.286;9.576;2022-10-16T09:43:52;0.82;;;0.80;;
44169;SDS011;29836;52.286;9.576;2022-10-16T09:46:22;0.80;;;0.80;;
44169;SDS011;29836;52.286;9.576;2022-10-16T09:48:58;2.05;;;1.10;;
44169;SDS011;29836;52.286;9.576;2022-10-16T09:51:26;2.55;;;0.90;;
44169;SDS011;29836;52.286;9.576;2022-10-16T09:54:11;1.05;;;0.80;;
44169;SDS011;29836;52.286;9.576;2022-10-16T09:56:41;1.17;;;1.00;;
44169;SDS011;29836;52.286;9.576;2022-10-16T09:59:13;0.93;;;0.75;;
44169;SDS011;29836;52.286;9.576;2022-10-16T10:01:49;1.02;;;0.80;;
44169;SDS011;29836;52.286;9.576;2022-10-16T10:04:17;1.73;;;0.90;;
44169;SDS011;29836;52.286;9.576;2022-10-16T10:09:20;1.27;;;0.80;;
44169;SDS011;29836;52.286;9.576;2022-10-16T10:11:59;1.20;;;0.73;;
44169;SDS011;29836;52.286;9.576;2022-10-16T10:14:28;1.88;;;0.70;;
44169;SDS011;29836;52.286;9.576;2022-10-16T10:17:02;1.73;;;1.02;;
44169;SDS011;29836;52.286;9.576;2022-10-16T10:22:29;2.72;;;0.90;;
44169;SDS011;29836;52.286;9.576;2022-10-16T10:28:17;2.20;;;1.10;;
44169;SDS011;29836;52.286;9.576;2022-10-16T10:33:50;1.75;;;0.90;;
44169;SDS011;29836;52.286;9.576;2022-10-16T10:36:30;0.93;;;0.82;;
44169;SDS011;29836;52.286;9.576;2022-10-16T10:47:18;2.53;;;1.00;;
44169;SDS011;29836;52.286;9.576;2022-10-16T11:00:45;3.83;;;0.80;;
44169;SDS011;29836;52.286;9.576;2022-10-16T11:03:39;1.25;;;0.70;;
44169;SDS011;29836;52.286;9.576;2022-10-16T11:06:08;1.83;;;0.80;;
44169;SDS011;29836;52.286;9.576;2022-10-16T11:11:23;3.90;;;0.80;;
44169;SDS011;29836;52.286;9.576;2022-10-16T11:13:59;0.68;;;0.68;;
44169;SDS011;29836;52.286;9.576;2022-10-16T11:16:42;2.47;;;0.82;;
44169;SDS011;29836;52.286;9.576;2022-10-16T11:21:48;1.63;;;0.88;;
44169;SDS011;29836;52.286;9.576;2022-10-16T11:24:21;0.90;;;0.63;;
44169;SDS011;29836;52.286;9.576;2022-10-16T11:26:55;3.13;;;0.90;;
44169;SDS011;29836;52.286;9.576;2022-10-16T11:29:25;0.77;;;0.70;;
44169;SDS011;29836;52.286;9.576;2022-10-16T11:31:55;4.38;;;0.93;;
44169;SDS011;29836;52.286;9.576;2022-10-16T11:34:29;2.45;;;0.90;;
44169;SDS011;29836;52.286;9.576;2022-10-16T11:42:13;1.35;;;0.60;;
44169;SDS011;29836;52.286;9.576;2022-10-16T11:52:42;6.20;;;0.77;;
44169;SDS011;29836;52.286;9.576;2022-10-16T11:55:17;0.60;;;0.60;;
44169;SDS011;29836;52.286;9.576;2022-10-16T11:57:49;4.47;;;0.98;;
44169;SDS011;29836;52.286;9.576;2022-10-16T12:00:20;1.77;;;0.70;;
44169;SDS011;29836;52.286;9.576;2022-10-16T12:08:14;2.28;;;0.60;;
44169;SDS011;29836;52.286;9.576;2022-10-16T12:10:42;3.25;;;0.63;;
44169;SDS011;29836;52.286;9.576;2022-10-16T12:18:50;1.05;;;0.60;;
44169;SDS011;29836;52.286;9.576;2022-10-16T12:26:30;2.28;;;0.80;;
44169;SDS011;29836;52.286;9.576;2022-10-16T12:29:11;1.85;;;0.70;;
44169;SDS011;29836;52.286;9.576;2022-10-16T12:31:43;1.17;;;0.70;;
44169;SDS011;29836;52.286;9.576;2022-10-16T12:34:19;1.85;;;0.75;;
44169;SDS011;29836;52.286;9.576;2022-10-16T12:37:13;2.58;;;0.55;;
44169;SDS011;29836;52.286;9.576;2022-10-16T12:39:45;2.50;;;0.75;;
44169;SDS011;29836;52.286;9.576;2022-10-16T12:42:20;0.85;;;0.60;;
44169;SDS011;29836;52.286;9.576;2022-10-16T12:48:04;0.85;;;0.80;;
44169;SDS011;29836;52.286;9.576;2022-10-16T12:50:44;2.05;;;0.60;;
44169;SDS011;29836;52.286;9.576;2022-10-16T12:53:23;1.17;;;0.70;;
44169;SDS011;29836;52.286;9.576;2022-10-16T12:56:12;0.70;;;0.70;;
44169;SDS011;29836;52.286;9.576;2022-10-16T13:01:25;0.73;;;0.65;;
44169;SDS011;29836;52.286;9.576;2022-10-16T13:04:10;0.93;;;0.60;;
44169;SDS011;29836;52.286;9.576;2022-10-16T13:06:45;1.23;;;0.80;;
44169;SDS011;29836;52.286;9.576;2022-10-16T13:09:33;2.83;;;0.75;;
44169;SDS011;29836;52.286;9.576;2022-10-16T13:12:13;1.13;;;0.70;;
44169;SDS011;29836;52.286;9.576;2022-10-16T13:17:39;5.40;;;0.80;;
44169;SDS011;29836;52.286;9.576;2022-10-16T13:23:23;1.10;;;0.60;;
44169;SDS011;29836;52.286;9.576;2022-10-16T13:28:58;2.38;;;0.90;;
44169;SDS011;29836;52.286;9.576;2022-10-16T13:31:25;0.50;;;0.50;;
44169;SDS011;29836;52.286;9.576;2022-10-16T13:33:51;0.57;;;0.57;;
44169;SDS011;29836;52.286;9.576;2022-10-16T13:36:23;1.83;;;0.90;;
44169;SDS011;29836;52.286;9.576;2022-10-16T13:41:37;3.13;;;0.65;;
44169;SDS011;29836;52.286;9.576;2022-10-16T13:44:02;2.92;;;0.73;;
44169;SDS011;29836;52.286;9.576;2022-10-16T13:46:28;2.35;;;0.85;;
44169;SDS011;29836;52.286;9.576;2022-10-16T13:49:03;0.60;;;0.60;;
44169;SDS011;29836;52.286;9.576;2022-10-16T13:51:39;0.80;;;0.70;;
44169;SDS011;29836;52.286;9.576;2022-10-16T13:54:04;0.68;;;0.60;;
44169;SDS011;29836;52.286;9.576;2022-10-16T13:56:31;1.52;;;0.82;;
44169;SDS011;29836;52.286;9.576;2022-10-16T13:58:59;0.70;;;0.65;;
44169;SDS011;29836;52.286;9.576;2022-10-16T14:01:29;0.98;;;0.63;;
44169;SDS011;29836;52.286;9.576;2022-10-16T14:04:04;5.78;;;0.80;;
44169;SDS011;29836;52.286;9.576;2022-10-16T14:06:32;5.25;;;1.00;;
44169;SDS011;29836;52.286;9.576;2022-10-16T14:09:00;0.50;;;0.50;;
44169;SDS011;29836;52.286;9.576;2022-10-16T14:11:31;1.15;;;0.60;;
44169;SDS011;29836;52.286;9.576;2022-10-16T14:13:57;0.60;;;0.60;;
44169;SDS011;29836;52.286;9.576;2022-10-16T14:16:24;2.25;;;0.70;;
44169;SDS011;29836;52.286;9.576;2022-10-16T14:18:57;0.70;;;0.63;;
44169;SDS011;29836;52.286;9.576;2022-10-16T14:21:26;1.02;;;0.63;;
44169;SDS011;29836;52.286;9.576;2022-10-16T14:23:52;2.33;;;0.70;;
44169;SDS011;29836;52.286;9.576;2022-10-16T14:26:20;1.38;;;0.70;;
44169;SDS011;29836;52.286;9.576;2022-10-16T14:29:33;3.28;;;0.60;;
44169;SDS011;29836;52.286;9.576;2022-10-16T14:31:42;1.67;;;0.70;;
44169;SDS011;29836;52.286;9.576;2022-10-16T14:34:25;3.85;;;0.90;;
44169;SDS011;29836;52.286;9.576;2022-10-16T14:36:55;3.75;;;0.70;;
44169;SDS011;29836;52.286;9.576;2022-10-16T14:39:21;1.02;;;0.60;;
44169;SDS011;29836;52.286;9.576;2022-10-16T14:41:49;0.80;;;0.68;;
44169;SDS011;29836;52.286;9.576;2022-10-16T14:44:19;0.80;;;0.70;;
44169;SDS011;29836;52.286;9.576;2022-10-16T14:46:52;2.60;;;0.90;;
44169;SDS011;29836;52.286;9.576;2022-10-16T14:49:18;3.83;;;0.75;;
44169;SDS011;29836;52.286;9.576;2022-10-16T14:51:45;2.95;;;0.80;;
44169;SDS011;29836;52.286;9.576;2022-10-16T14:54:12;2.42;;;0.85;;
44169;SDS011;29836;52.286;9.576;2022-10-16T15:01:48;1.20;;;0.80;;
44169;SDS011;29836;52.286;9.576;2022-10-16T15:04:14;0.90;;;0.73;;
44169;SDS011;29836;52.286;9.576;2022-10-16T15:06:40;3.10;;;0.77;;
44169;SDS011;29836;52.286;9.576;2022-10-16T15:09:06;2.05;;;0.60;;
44169;SDS011;29836;52.286;9.576;2022-10-16T15:11:32;3.80;;;0.82;;
44169;SDS011;29836;52.286;9.576;2022-10-16T15:13:58;0.70;;;0.70;;
44169;SDS011;29836;52.286;9.576;2022-10-16T15:16:23;4.25;;;0.98;;
44169;SDS011;29836;52.286;9.576;2022-10-16T15:18:49;1.92;;;0.98;;
44169;SDS011;29836;52.286;9.576;2022-10-16T15:21:28;2.40;;;0.77;;
44169;SDS011;29836;52.286;9.576;2022-10-16T15:23:55;1.13;;;0.80;;
44169;SDS011;29836;52.286;9.576;2022-10-16T15:26:22;0.50;;;0.50;;
44169;SDS011;29836;52.286;9.576;2022-10-16T15:28:49;3.05;;;0.90;;
44169;SDS011;29836;52.286;9.576;2022-10-16T15:31:15;1.73;;;0.90;;
44169;SDS011;29836;52.286;9.576;2022-10-16T15:33:40;7.97;;;2.20;;
44169;SDS011;29836;52.286;9.576;2022-10-16T15:36:07;4.40;;;2.30;;
44169;SDS011;29836;52.286;9.576;2022-10-16T15:38:32;5.55;;;2.20;;
44169;SDS011;29836;52.286;9.576;2022-10-16T15:40:58;3.85;;;1.50;;
44169;SDS011;29836;52.286;9.576;2022-10-16T15:43:24;1.77;;;1.30;;
44169;SDS011;29836;52.286;9.576;2022-10-16T15:48:26;3.55;;;1.27;;
44169;SDS011;29836;52.286;9.576;2022-10-16T15:50:52;2.15;;;1.17;;
44169;SDS011;29836;52.286;9.576;2022-10-16T15:53:18;3.38;;;1.70;;
44169;SDS011;29836;52.286;9.576;2022-10-16T15:55:43;3.00;;;1.60;;
44169;SDS011;29836;52.286;9.576;2022-10-16T15:58:09;1.55;;;1.10;;
44169;SDS011;29836;52.286;9.576;2022-10-16T16:00:34;2.58;;;1.13;;
44169;SDS011;29836;52.286;9.576;2022-10-16T16:03:00;2.35;;;1.10;;
44169;SDS011;29836;52.286;9.576;2022-10-16T16:05:25;1.48;;;0.88;;
44169;SDS011;29836;52.286;9.576;2022-10-16T16:07:52;3.40;;;1.23;;
44169;SDS011;29836;52.286;9.576;2022-10-16T16:10:18;1.13;;;0.85;;
44169;SDS011;29836;52.286;9.576;2022-10-16T16:12:46;2.17;;;1.10;;
44169;SDS011;29836;52.286;9.576;2022-10-16T16:15:17;3.30;;;1.00;;
44169;SDS011;29836;52.286;9.576;2022-10-16T16:17:44;3.22;;;1.30;;
44169;SDS011;29836;52.286;9.576;2022-10-16T16:20:10;2.45;;;1.23;;
44169;SDS011;29836;52.286;9.576;2022-10-16T16:22:36;3.25;;;1.33;;
44169;SDS011;29836;52.286;9.576;2022-10-16T16:25:02;3.78;;;1.60;;
44169;SDS011;29836;52.286;9.576;2022-10-16T16:27:28;2.08;;;1.35;;
44169;SDS011;29836;52.286;9.576;2022-10-16T16:29:54;4.25;;;1.90;;
44169;SDS011;29836;52.286;9.576;2022-10-16T16:32:20;2.80;;;1.75;;
44169;SDS011;29836;52.286;9.576;2022-10-16T16:34:46;4.13;;;2.47;;
44169;SDS011;29836;52.286;9.576;2022-10-16T16:37:12;2.67;;;1.30;;
44169;SDS011;29836;52.286;9.576;2022-10-16T16:39:38;2.28;;;0.90;;
44169;SDS011;29836;52.286;9.576;2022-10-16T16:42:04;1.40;;;0.90;;
44169;SDS011;29836;52.286;9.576;2022-10-16T16:44:31;2.55;;;1.30;;
44169;SDS011;29836;52.286;9.576;2022-10-16T16:46:57;5.40;;;1.63;;
44169;SDS011;29836;52.286;9.576;2022-10-16T16:49:23;6.80;;;2.10;;
44169;SDS011;29836;52.286;9.576;2022-10-16T16:51:48;16.52;;;6.45;;
44169;SDS011;29836;52.286;9.576;2022-10-16T16:54:14;27.08;;;9.20;;
44169;SDS011;29836;52.286;9.576;2022-10-16T16:56:40;12.13;;;4.60;;